createdAt,value
2023-01-05T00:01:29.697Z,38.13
2023-01-05T00:03:32.300Z,40.57
2023-01-05T00:05:34.199Z,49.77
2023-01-05T00:07:36.246Z,37.87
2023-01-05T00:09:39.204Z,43.00
2023-01-05T00:11:59.796Z,23.70
2023-01-05T00:14:21.138Z,23.93
2023-01-05T00:16:41.766Z,18.30
2023-01-05T00:19:02.343Z,20.77
2023-01-05T00:21:31.430Z,26.07
2023-01-05T00:23:33.525Z,22.87
2023-01-05T00:25:40.865Z,22.33
2023-01-05T00:27:44.928Z,20.10
2023-01-05T00:29:47.202Z,20.63
2023-01-05T00:31:49.688Z,23.67
2023-01-05T00:33:51.950Z,20.30
2023-01-05T00:35:56.245Z,16.13
2023-01-05T00:37:58.303Z,18.87
2023-01-05T00:40:04.454Z,18.13
2023-01-05T00:42:06.800Z,18.93
2023-01-05T00:44:09.023Z,22.70
2023-01-05T00:46:11.234Z,24.97
2023-01-05T00:48:13.146Z,21.27
2023-01-05T00:50:17.328Z,15.80
2023-01-05T00:52:19.863Z,17.43
2023-01-05T00:54:22.056Z,17.80
2023-01-05T00:56:24.243Z,17.30
2023-01-05T00:58:53.317Z,14.30
2023-01-05T01:00:55.388Z,16.50
2023-01-05T01:02:59.012Z,17.47
2023-01-05T01:05:01.212Z,16.57
2023-01-05T01:07:06.110Z,15.17
2023-01-05T01:09:08.564Z,15.57
2023-01-05T01:11:12.712Z,14.20
2023-01-05T01:13:15.525Z,14.10
2023-01-05T01:15:17.732Z,14.53
2023-01-05T01:17:20.143Z,14.47
2023-01-05T01:19:24.529Z,16.10
2023-01-05T01:21:26.795Z,13.20
2023-01-05T01:23:29.268Z,13.37
2023-01-05T01:25:31.478Z,13.13
2023-01-05T01:27:34.158Z,12.83
2023-01-05T01:29:36.291Z,15.00
2023-01-05T01:31:38.511Z,12.20
2023-01-05T01:33:41.741Z,13.47
2023-01-05T01:35:45.725Z,14.03
2023-01-05T01:37:47.848Z,18.80
2023-01-05T01:39:50.154Z,14.77
2023-01-05T01:41:52.576Z,17.03
2023-01-05T01:43:56.719Z,15.13
2023-01-05T01:46:03.484Z,14.93
2023-01-05T01:48:06.099Z,15.60
2023-01-05T01:50:17.671Z,13.70
2023-01-05T01:52:23.050Z,15.73
2023-01-05T01:54:25.592Z,15.03
2023-01-05T01:56:35.351Z,13.43
2023-01-05T01:58:38.040Z,15.13
2023-01-05T02:00:41.479Z,18.50
2023-01-05T02:02:43.412Z,19.30
2023-01-05T02:04:46.407Z,18.77
2023-01-05T02:06:50.547Z,18.23
2023-01-05T02:08:52.611Z,16.90
2023-01-05T02:11:17.339Z,14.93
2023-01-05T02:13:35.357Z,13.63
2023-01-05T02:15:49.011Z,16.33
2023-01-05T02:17:56.981Z,21.30
2023-01-05T02:20:17.019Z,22.10
2023-01-05T02:22:29.377Z,21.40
2023-01-05T02:24:43.768Z,25.07
2023-01-05T02:27:06.902Z,40.33
2023-01-05T02:29:37.400Z,46.93
2023-01-05T02:32:03.334Z,38.17
2023-01-05T02:34:20.838Z,38.87
2023-01-05T02:36:29.763Z,25.90
2023-01-05T02:42:25.252Z,22.73
2023-01-05T02:44:33.205Z,25.37
2023-01-05T02:46:35.609Z,31.83
2023-01-05T02:48:39.509Z,32.53
2023-01-05T02:50:54.083Z,40.53
2023-01-05T02:53:21.109Z,36.47
2023-01-05T02:55:35.045Z,34.70
2023-01-05T02:57:50.780Z,28.73
2023-01-05T03:00:35.094Z,27.90
2023-01-05T03:02:42.787Z,21.70
2023-01-05T03:05:04.477Z,22.70
2023-01-05T03:07:13.286Z,22.73
2023-01-05T03:09:20.246Z,17.93
2023-01-05T03:11:51.555Z,22.53
2023-01-05T03:14:31.482Z,17.83
2023-01-05T03:16:36.904Z,23.00
2023-01-05T03:18:59.827Z,20.33
2023-01-05T03:21:04.639Z,18.00
2023-01-05T03:23:28.446Z,15.87
2023-01-05T03:25:56.771Z,19.17
2023-01-05T03:28:19.422Z,18.30
2023-01-05T03:30:45.610Z,17.83
2023-01-05T03:33:14.316Z,17.30
2023-01-05T03:35:34.253Z,16.87
2023-01-05T03:37:42.337Z,15.67
2023-01-05T03:39:47.351Z,15.70
2023-01-05T03:41:51.246Z,15.43
2023-01-05T03:43:54.071Z,14.23
2023-01-05T03:45:58.331Z,17.20
2023-01-05T03:48:02.592Z,17.83
2023-01-05T03:50:05.551Z,18.00
2023-01-05T03:52:07.865Z,18.77
2023-01-05T03:54:10.336Z,18.80
2023-01-05T03:56:13.693Z,17.20
2023-01-05T03:58:15.733Z,16.30
2023-01-05T04:00:22.582Z,16.90
2023-01-05T04:02:34.092Z,14.80
2023-01-05T04:04:36.695Z,15.80
2023-01-05T04:06:41.931Z,14.43
2023-01-05T04:08:45.806Z,17.80
2023-01-05T04:10:48.056Z,18.77
2023-01-05T04:12:50.329Z,18.07
2023-01-05T04:14:53.637Z,15.10
2023-01-05T04:16:56.293Z,17.83
2023-01-05T04:18:59.967Z,18.47
2023-01-05T04:21:05.445Z,17.30
2023-01-05T04:23:07.557Z,16.57
2023-01-05T04:25:11.444Z,15.23
2023-01-05T04:27:16.518Z,16.30
2023-01-05T04:29:18.721Z,16.67
2023-01-05T04:31:24.036Z,15.77
2023-01-05T04:33:27.193Z,16.87
2023-01-05T04:35:30.298Z,16.87
2023-01-05T04:37:33.461Z,16.90
2023-01-05T04:39:36.408Z,16.60
2023-01-05T04:41:38.501Z,14.93
2023-01-05T04:43:41.411Z,16.47
2023-01-05T04:45:48.237Z,16.17
2023-01-05T04:47:52.393Z,17.63
2023-01-05T04:49:56.827Z,19.23
2023-01-05T04:51:59.044Z,15.90
2023-01-05T04:54:01.818Z,16.53
2023-01-05T04:56:04.571Z,13.50
2023-01-05T04:58:12.588Z,15.90
2023-01-05T05:00:18.793Z,15.03
2023-01-05T05:02:23.881Z,17.03
2023-01-05T05:04:27.370Z,15.23
2023-01-05T05:06:29.720Z,17.03
2023-01-05T05:08:32.330Z,14.17
2023-01-05T05:10:36.454Z,12.97
2023-01-05T05:12:38.460Z,15.13
2023-01-05T05:14:42.041Z,15.63
2023-01-05T05:16:44.108Z,16.27
2023-01-05T05:18:46.306Z,17.90
2023-01-05T05:20:54.162Z,13.40
2023-01-05T05:23:00.727Z,14.83
2023-01-05T05:25:07.478Z,14.37
2023-01-05T05:27:09.684Z,14.17
2023-01-05T05:29:12.353Z,13.80
2023-01-05T05:31:14.530Z,12.97
2023-01-05T05:33:16.688Z,15.13
2023-01-05T05:35:18.834Z,18.00
2023-01-05T05:37:20.934Z,30.90
2023-01-05T05:39:23.072Z,16.63
2023-01-05T05:41:25.457Z,13.33
2023-01-05T05:43:27.549Z,16.40
2023-01-05T05:45:29.575Z,14.40
2023-01-05T05:47:32.307Z,16.00
2023-01-05T05:49:34.253Z,14.63
2023-01-05T05:51:36.513Z,20.10
2023-01-05T05:53:38.587Z,38.30
2023-01-05T05:55:40.803Z,40.87
2023-01-05T05:57:42.925Z,62.53
2023-01-05T05:59:44.963Z,144.27
2023-01-05T06:01:46.996Z,100.20
2023-01-05T06:07:12.331Z,62.10
2023-01-05T06:09:14.678Z,139.13
2023-01-05T06:11:17.128Z,159.93
2023-01-05T06:13:19.273Z,132.33
2023-01-05T06:15:23.022Z,60.33
2023-01-05T06:17:25.337Z,35.30
2023-01-05T06:19:27.632Z,28.60
2023-01-05T06:21:29.908Z,54.43
2023-01-05T06:23:32.201Z,85.10
2023-01-05T06:25:34.878Z,62.27
2023-01-05T06:27:37.282Z,39.30
2023-01-05T06:29:39.237Z,32.30
2023-01-05T06:31:41.236Z,47.53
2023-01-05T06:33:43.389Z,41.33
2023-01-05T06:35:45.562Z,48.10
2023-01-05T06:37:47.904Z,110.03
2023-01-05T06:39:50.139Z,103.27
2023-01-05T06:41:52.254Z,56.27
2023-01-05T06:43:54.221Z,41.13
2023-01-05T06:45:56.494Z,78.67
2023-01-05T06:47:59.160Z,76.63
2023-01-05T06:50:01.332Z,44.60
2023-01-05T06:52:03.636Z,38.33
2023-01-05T06:54:05.909Z,70.30
2023-01-05T06:56:10.809Z,63.23
2023-01-05T06:58:13.359Z,40.17
2023-01-05T07:00:16.300Z,28.97
2023-01-05T07:02:18.666Z,19.70
2023-01-05T07:04:21.161Z,18.50
2023-01-05T07:06:23.655Z,22.73
2023-01-05T07:08:25.946Z,18.80
2023-01-05T07:10:28.488Z,18.50
2023-01-05T07:16:30.894Z,27.87
2023-01-05T07:18:33.236Z,30.60
2023-01-05T07:20:35.282Z,31.10
2023-01-05T07:22:37.454Z,24.60
2023-01-05T07:24:39.601Z,20.70
2023-01-05T07:26:41.622Z,15.57
2023-01-05T07:28:43.742Z,14.10
2023-01-05T07:30:52.712Z,15.70
2023-01-05T07:32:59.430Z,11.67
2023-01-05T07:35:04.221Z,11.13
2023-01-05T07:37:06.598Z,11.40
2023-01-05T07:39:08.845Z,16.17
2023-01-05T07:41:11.345Z,13.70
2023-01-05T07:43:13.693Z,19.40
2023-01-05T07:45:16.038Z,20.33
2023-01-05T07:47:19.074Z,12.97
2023-01-05T07:49:21.369Z,12.93
2023-01-05T07:51:24.211Z,15.70
2023-01-05T07:53:26.842Z,14.37
2023-01-05T07:55:29.075Z,12.50
2023-01-05T07:57:31.489Z,9.00
2023-01-05T07:59:33.948Z,13.17
2023-01-05T08:01:36.286Z,11.73
2023-01-05T08:03:38.759Z,13.23
2023-01-05T08:05:40.818Z,12.53
2023-01-05T08:07:43.222Z,14.67
2023-01-05T08:10:03.587Z,12.13
2023-01-05T08:12:06.121Z,14.03
2023-01-05T08:14:08.198Z,11.63
2023-01-05T08:20:11.163Z,12.47
2023-01-05T08:22:13.579Z,11.30
2023-01-05T08:24:15.480Z,13.70
2023-01-05T08:26:19.068Z,13.80
2023-01-05T08:28:21.654Z,13.33
2023-01-05T08:30:29.730Z,14.57
2023-01-05T08:32:33.169Z,15.70
2023-01-05T08:34:35.322Z,13.33
2023-01-05T08:36:37.587Z,17.53
2023-01-05T08:38:48.757Z,16.50
2023-01-05T08:40:51.453Z,28.00
2023-01-05T08:42:56.183Z,22.07
2023-01-05T08:44:58.637Z,19.83
2023-01-05T08:47:01.146Z,22.60
2023-01-05T08:49:07.453Z,20.00
2023-01-05T08:51:09.425Z,16.93
2023-01-05T08:53:12.184Z,17.50
2023-01-05T08:55:14.849Z,16.67
2023-01-05T08:57:17.982Z,18.73
2023-01-05T08:59:19.979Z,19.70
2023-01-05T09:01:22.614Z,19.60
2023-01-05T09:03:28.234Z,19.83
2023-01-05T09:05:30.391Z,18.70
2023-01-05T09:07:32.486Z,20.47
2023-01-05T09:09:34.943Z,19.03
2023-01-05T09:11:37.023Z,36.50
2023-01-05T09:13:40.284Z,37.07
2023-01-05T09:15:42.605Z,108.27
2023-01-05T09:17:45.124Z,79.43
2023-01-05T09:19:47.126Z,71.13
2023-01-05T09:21:49.298Z,89.80
2023-01-05T09:23:51.812Z,66.80
2023-01-05T09:25:57.050Z,72.17
2023-01-05T09:28:25.861Z,50.23
2023-01-05T09:30:27.970Z,48.72
2023-01-05T09:32:30.159Z,52.77
2023-01-05T09:38:18.621Z,48.63
2023-01-05T09:40:21.602Z,34.97
2023-01-05T09:42:27.716Z,33.33
2023-01-05T09:44:36.513Z,37.30
2023-01-05T09:46:45.070Z,49.87
2023-01-05T09:48:52.515Z,79.23
2023-01-05T09:50:54.764Z,58.07
2023-01-05T09:53:00.137Z,51.40
2023-01-05T09:55:10.700Z,33.47
2023-01-05T09:57:17.589Z,36.83
2023-01-05T09:59:37.413Z,34.87
2023-01-05T10:01:41.294Z,20.43
2023-01-05T10:04:04.534Z,27.20
2023-01-05T10:06:14.866Z,26.37
2023-01-05T10:08:32.841Z,23.37
2023-01-05T10:10:46.824Z,27.77
2023-01-05T10:13:04.304Z,27.33
2023-01-05T10:15:27.870Z,29.43
2023-01-05T10:17:41.724Z,34.90
2023-01-05T10:19:51.682Z,21.57
2023-01-05T10:22:02.774Z,22.43
2023-01-05T10:24:15.073Z,20.20
2023-01-05T10:26:24.583Z,18.33
2023-01-05T10:28:47.772Z,18.13
2023-01-05T10:31:01.549Z,21.23
2023-01-05T10:33:27.752Z,23.43
2023-01-05T10:36:02.702Z,20.20
2023-01-05T10:38:22.652Z,27.20
2023-01-05T10:40:46.638Z,27.80
2023-01-05T10:43:24.027Z,31.53
2023-01-05T10:45:30.174Z,26.17
2023-01-05T10:47:37.322Z,29.37
2023-01-05T10:49:43.740Z,27.57
2023-01-05T10:51:48.877Z,20.43
2023-01-05T10:53:54.553Z,28.37
2023-01-05T10:56:22.704Z,23.83
2023-01-05T10:58:31.828Z,19.00
2023-01-05T11:00:42.871Z,20.27
2023-01-05T11:03:03.433Z,21.33
2023-01-05T11:05:11.283Z,22.43
2023-01-05T11:07:13.428Z,24.23
2023-01-05T11:09:22.821Z,22.37
2023-01-05T11:11:26.811Z,18.83
2023-01-05T11:13:36.952Z,18.07
2023-01-05T11:15:44.601Z,20.40
2023-01-05T11:17:47.018Z,21.20
2023-01-05T11:19:55.356Z,18.33
2023-01-05T11:22:01.953Z,19.90
2023-01-05T11:24:05.255Z,22.60
2023-01-05T11:26:19.535Z,17.40
2023-01-05T11:28:22.098Z,17.60
2023-01-05T11:30:25.733Z,20.60
2023-01-05T11:32:28.057Z,21.70
2023-01-05T11:34:42.333Z,18.83
2023-01-05T11:37:02.442Z,21.30
2023-01-05T11:39:25.722Z,25.27
2023-01-05T11:41:28.255Z,24.23
2023-01-05T11:43:34.145Z,24.10
2023-01-05T11:45:41.841Z,21.40
2023-01-05T11:48:03.480Z,20.67
2023-01-05T11:50:21.845Z,24.40
2023-01-05T11:52:27.256Z,21.50
2023-01-05T11:54:39.622Z,21.33
2023-01-05T11:56:52.645Z,30.53
2023-01-05T11:58:58.086Z,28.67
2023-01-05T12:01:17.796Z,21.17
2023-01-05T12:03:34.937Z,23.70
2023-01-05T12:05:43.474Z,22.70
2023-01-05T12:07:53.732Z,20.97
2023-01-05T12:10:12.434Z,18.67
2023-01-05T12:12:19.997Z,17.83
2023-01-05T12:14:42.193Z,19.53
2023-01-05T12:16:55.457Z,51.13
2023-01-05T12:19:39.131Z,136.83
2023-01-05T12:22:06.221Z,217.53
2023-01-05T12:24:36.603Z,268.17
2023-01-05T12:27:20.941Z,145.27
2023-01-05T12:35:36.831Z,35.03
2023-01-05T12:38:19.699Z,26.90
2023-01-05T12:40:21.711Z,21.60
2023-01-05T12:42:58.889Z,22.97
2023-01-05T12:45:32.076Z,23.30
2023-01-05T12:47:54.615Z,21.50
2023-01-05T12:50:06.651Z,22.13
2023-01-05T12:52:29.365Z,26.40
2023-01-05T12:54:57.272Z,25.93
2023-01-05T12:57:11.719Z,25.33
2023-01-05T12:59:21.097Z,26.13
2023-01-05T13:01:27.936Z,27.30
2023-01-05T13:03:44.886Z,25.27
2023-01-05T13:06:10.958Z,22.73
2023-01-05T13:08:22.204Z,23.33
2023-01-05T13:14:14.192Z,23.93
2023-01-05T13:16:48.801Z,22.90
2023-01-05T13:19:04.504Z,26.97
2023-01-05T13:21:14.594Z,25.50
2023-01-05T13:23:36.948Z,35.93
2023-01-05T13:26:12.107Z,30.93
2023-01-05T13:28:19.618Z,28.13
2023-01-05T13:30:27.193Z,25.53
2023-01-05T13:32:49.796Z,24.90
2023-01-05T13:35:06.250Z,25.03
2023-01-05T13:37:26.782Z,28.13
2023-01-05T13:39:44.468Z,28.33
2023-01-05T13:41:58.883Z,30.17
2023-01-05T13:44:19.136Z,30.90
2023-01-05T13:46:26.970Z,27.57
2023-01-05T13:48:58.095Z,29.20
2023-01-05T13:51:37.688Z,27.30
2023-01-05T13:53:42.029Z,36.13
2023-01-05T13:55:50.521Z,32.30
2023-01-05T13:57:55.907Z,27.73
2023-01-05T14:00:08.295Z,35.80
2023-01-05T14:02:29.811Z,33.50
2023-01-05T14:04:35.103Z,36.70
2023-01-05T14:06:42.836Z,32.00
2023-01-05T14:09:10.954Z,34.73
2023-01-05T14:11:20.090Z,33.83
2023-01-05T14:13:43.563Z,33.17
2023-01-05T14:16:36.112Z,33.93
2023-01-05T14:18:55.637Z,31.13
2023-01-05T14:20:57.700Z,33.97
2023-01-05T14:23:01.398Z,33.83
2023-01-05T14:25:40.813Z,33.43
2023-01-05T14:28:17.943Z,32.93
2023-01-05T14:30:21.799Z,30.60
2023-01-05T14:32:30.341Z,35.67
2023-01-05T14:34:32.511Z,31.47
2023-01-05T14:36:59.200Z,34.97
2023-01-05T14:39:27.350Z,36.97
2023-01-05T14:41:32.611Z,38.87
2023-01-05T14:43:36.010Z,35.23
2023-01-05T14:45:40.117Z,32.70
2023-01-05T14:47:53.172Z,41.60
2023-01-05T14:50:03.793Z,39.33
2023-01-05T14:56:08.990Z,38.33
2023-01-05T14:58:35.228Z,42.23
2023-01-05T15:00:55.963Z,36.57
2023-01-05T15:03:37.596Z,37.70
2023-01-05T15:06:14.917Z,37.60
2023-01-05T15:08:30.073Z,33.23
2023-01-05T15:10:51.126Z,30.20
2023-01-05T15:13:23.863Z,28.23
2023-01-05T15:15:39.740Z,29.17
2023-01-05T15:18:01.389Z,35.57
2023-01-05T15:20:28.250Z,34.23
2023-01-05T15:22:59.124Z,32.70
2023-01-05T15:25:10.525Z,34.73
2023-01-05T15:27:36.180Z,31.43
2023-01-05T15:29:55.112Z,28.03
2023-01-05T15:32:03.562Z,32.70
2023-01-05T15:34:14.502Z,25.57
2023-01-05T15:36:32.091Z,30.70
2023-01-05T15:38:45.881Z,28.80
2023-01-05T15:40:49.292Z,27.73
2023-01-05T15:42:54.759Z,33.57
2023-01-05T15:44:58.071Z,34.27
2023-01-05T15:47:01.281Z,25.90
2023-01-05T15:49:03.282Z,30.73
2023-01-05T15:51:06.172Z,27.70
2023-01-05T15:53:22.868Z,26.47
2023-01-05T15:55:26.775Z,26.77
2023-01-05T15:57:29.396Z,26.17
2023-01-05T15:59:36.027Z,28.20
2023-01-05T16:01:38.406Z,27.63
2023-01-05T16:03:46.302Z,27.00
2023-01-05T16:05:49.054Z,30.00
2023-01-05T16:07:53.927Z,28.57
2023-01-05T16:09:56.042Z,31.90
2023-01-05T16:12:23.531Z,28.73
2023-01-05T16:14:32.397Z,28.70
2023-01-05T16:16:55.561Z,27.23
2023-01-05T16:19:02.975Z,26.23
2023-01-05T16:21:14.625Z,28.97
2023-01-05T16:23:24.644Z,26.50
2023-01-05T16:25:42.324Z,30.60
2023-01-05T16:27:48.467Z,33.03
2023-01-05T16:29:51.251Z,30.17
2023-01-05T16:31:55.787Z,27.53
2023-01-05T16:34:04.125Z,27.50
2023-01-05T16:36:15.243Z,24.27
2023-01-05T16:38:29.074Z,25.57
2023-01-05T16:40:31.160Z,22.40
2023-01-05T16:42:40.516Z,27.37
2023-01-05T16:44:52.681Z,28.03
2023-01-05T16:47:08.071Z,27.87
2023-01-05T16:53:35.958Z,27.00
2023-01-05T16:55:39.211Z,25.00
2023-01-05T16:57:43.581Z,22.37
2023-01-05T16:59:48.726Z,26.70
2023-01-05T17:01:51.190Z,23.80
2023-01-05T17:03:54.496Z,21.37
2023-01-05T17:05:58.902Z,25.20
2023-01-05T17:08:19.163Z,20.50
2023-01-05T17:10:30.621Z,22.87
2023-01-05T17:12:32.969Z,18.40
2023-01-05T17:14:35.081Z,17.83
2023-01-05T17:16:37.493Z,20.03
2023-01-05T17:18:40.354Z,18.57
2023-01-05T17:20:43.634Z,20.07
2023-01-05T17:22:46.040Z,18.80
2023-01-05T17:24:48.941Z,22.50
2023-01-05T17:26:50.987Z,19.83
2023-01-05T17:28:58.406Z,19.40
2023-01-05T17:31:01.019Z,17.77
2023-01-05T17:33:03.885Z,18.50
2023-01-05T17:37:17.532Z,15.57
2023-01-05T17:39:21.235Z,18.17
2023-01-05T17:41:23.528Z,16.20
2023-01-05T17:43:26.869Z,16.20
2023-01-05T17:45:30.606Z,16.20
2023-01-05T17:47:58.136Z,18.33
2023-01-05T17:50:00.271Z,20.47
2023-01-05T17:54:09.727Z,38.20
2023-01-05T17:56:11.862Z,49.67
2023-01-05T17:58:15.110Z,54.90
2023-01-05T18:00:22.440Z,55.60
2023-01-05T18:02:26.938Z,59.20
2023-01-05T18:04:32.724Z,95.90
2023-01-05T18:06:35.516Z,186.97
2023-01-05T18:08:38.058Z,214.50
2023-01-05T18:12:48.386Z,91.13
2023-01-05T18:14:50.493Z,49.53
2023-01-05T18:16:52.497Z,39.87
2023-01-05T18:18:54.521Z,31.30
2023-01-05T18:21:02.625Z,29.50
2023-01-05T18:25:13.069Z,26.10
2023-01-05T18:27:15.675Z,22.90
2023-01-05T18:29:18.111Z,22.93
2023-01-05T18:31:20.171Z,23.17
2023-01-05T18:33:22.222Z,19.20
2023-01-05T18:35:24.608Z,19.33
2023-01-05T18:39:29.762Z,24.07
2023-01-05T18:41:31.832Z,24.00
2023-01-05T18:43:34.261Z,22.63
2023-01-05T18:45:39.899Z,21.90
2023-01-05T18:47:42.206Z,21.50
2023-01-05T18:49:44.879Z,16.33
2023-01-05T18:51:50.751Z,19.40
2023-01-05T18:53:52.823Z,18.37
2023-01-05T18:55:57.875Z,19.77
2023-01-05T18:58:00.013Z,21.90
2023-01-05T19:00:02.347Z,20.33
2023-01-05T19:02:04.466Z,20.00
2023-01-05T19:04:06.801Z,17.07
2023-01-05T19:06:16.336Z,21.90
2023-01-05T19:08:18.834Z,25.83
2023-01-05T19:10:49.502Z,27.13
2023-01-05T19:12:51.555Z,32.70
2023-01-05T19:14:53.603Z,30.63
2023-01-05T19:16:55.799Z,30.00
2023-01-05T19:19:03.797Z,35.03
2023-01-05T19:21:06.281Z,37.70
2023-01-05T19:23:08.209Z,33.67
2023-01-05T19:25:10.331Z,31.37
2023-01-05T19:27:12.477Z,29.87
2023-01-05T19:29:15.486Z,22.73
2023-01-05T19:31:19.301Z,19.97
2023-01-05T19:33:21.422Z,17.83
2023-01-05T19:35:24.045Z,16.37
2023-01-05T19:37:26.586Z,16.13
2023-01-05T19:39:29.141Z,42.07
2023-01-05T19:41:31.290Z,52.67
2023-01-05T19:43:37.368Z,53.30
2023-01-05T19:45:39.893Z,41.17
2023-01-05T19:47:43.264Z,36.27
2023-01-05T19:49:45.365Z,33.10
2023-01-05T19:51:54.728Z,30.93
2023-01-05T19:54:06.479Z,23.60
2023-01-05T19:56:12.025Z,24.13
2023-01-05T19:58:14.539Z,37.00
2023-01-05T20:00:17.451Z,29.47
2023-01-05T20:02:19.759Z,38.07
2023-01-05T20:04:21.856Z,41.27
2023-01-05T20:06:27.319Z,39.87
2023-01-05T20:08:30.315Z,44.83
2023-01-05T20:10:32.602Z,50.67
2023-01-05T20:12:34.910Z,50.80
2023-01-05T20:14:37.145Z,51.00
2023-01-05T20:16:40.748Z,65.97
2023-01-05T20:18:42.993Z,51.23
2023-01-05T20:20:45.145Z,94.77
2023-01-05T20:22:47.425Z,191.87
2023-01-05T20:24:49.834Z,190.57
2023-01-05T20:26:55.154Z,146.20
2023-01-05T20:29:00.428Z,66.50
2023-01-05T20:31:02.976Z,53.50
2023-01-05T20:33:05.489Z,44.87
2023-01-05T20:35:07.927Z,35.00
2023-01-05T20:37:11.174Z,25.70
2023-01-05T20:39:16.241Z,21.60
2023-01-05T20:41:24.472Z,19.40
2023-01-05T20:43:26.921Z,18.67
2023-01-05T20:45:29.029Z,18.83
2023-01-05T20:47:39.403Z,18.67
2023-01-05T20:53:24.591Z,20.20
2023-01-05T20:55:26.517Z,19.03
2023-01-05T20:57:28.840Z,25.83
2023-01-05T20:59:32.558Z,30.17
2023-01-05T21:01:36.288Z,63.17
2023-01-05T21:03:39.059Z,48.40
2023-01-05T21:05:41.118Z,44.50
2023-01-05T21:07:43.297Z,35.20
2023-01-05T21:09:45.288Z,28.50
2023-01-05T21:11:47.710Z,25.50
2023-01-05T21:13:50.754Z,30.90
2023-01-05T21:15:55.711Z,32.23
2023-01-05T21:17:58.040Z,32.57
2023-01-05T21:20:00.908Z,47.60
2023-01-05T21:22:03.276Z,45.27
2023-01-05T21:24:07.938Z,36.27
2023-01-05T21:26:13.689Z,35.43
2023-01-05T21:28:18.894Z,44.23
2023-01-05T21:30:21.730Z,35.90
2023-01-05T21:32:23.918Z,29.30
2023-01-05T21:34:26.086Z,37.83
2023-01-05T21:36:30.081Z,55.77
2023-01-05T21:39:02.180Z,71.47
2023-01-05T21:41:41.368Z,69.50
2023-01-05T21:43:43.555Z,55.83
2023-01-05T21:45:46.096Z,48.90
2023-01-05T21:47:57.699Z,43.17
2023-01-05T21:50:00.131Z,43.17
2023-01-05T21:52:21.294Z,58.50
2023-01-05T21:54:42.503Z,53.97
2023-01-05T21:56:45.696Z,48.80
2023-01-05T21:58:47.875Z,45.83
2023-01-05T22:00:50.353Z,37.70
2023-01-05T22:02:52.377Z,38.57
2023-01-05T22:04:54.654Z,36.27
2023-01-05T22:06:57.267Z,27.37
2023-01-05T22:08:59.635Z,29.67
2023-01-05T22:11:03.056Z,26.63
2023-01-05T22:13:08.767Z,25.77
2023-01-05T22:15:11.773Z,26.73
2023-01-05T22:17:26.370Z,25.20
2023-01-05T22:19:28.450Z,28.60
2023-01-05T22:21:31.207Z,29.30
2023-01-05T22:24:35.661Z,28.03
2023-01-05T22:26:38.101Z,21.90
2023-01-05T22:28:41.665Z,21.87
2023-01-05T22:30:43.640Z,24.17
2023-01-05T22:32:45.571Z,20.17
2023-01-05T22:34:47.776Z,19.53
2023-01-05T22:36:50.212Z,27.93
2023-01-05T22:38:54.139Z,27.27
2023-01-05T22:40:59.952Z,24.50
2023-01-05T22:43:02.130Z,28.30
2023-01-05T22:45:04.478Z,20.73
2023-01-05T22:47:06.663Z,17.27
2023-01-05T22:49:12.993Z,18.67
2023-01-05T22:51:29.921Z,18.07
2023-01-05T22:53:32.123Z,16.60
2023-01-05T22:55:34.241Z,11.27
2023-01-05T22:57:36.241Z,13.40
2023-01-05T22:59:38.398Z,9.63
2023-01-05T23:01:45.026Z,18.23
2023-01-05T23:03:47.392Z,21.93
2023-01-05T23:05:49.633Z,17.77
2023-01-05T23:07:51.965Z,15.20
2023-01-05T23:09:54.081Z,14.67
2023-01-05T23:11:56.198Z,12.67
2023-01-05T23:14:00.746Z,15.90
2023-01-05T23:16:03.593Z,14.53
2023-01-05T23:18:05.872Z,15.93
2023-01-05T23:20:08.744Z,15.70
2023-01-05T23:22:11.629Z,13.90
2023-01-05T23:24:14.147Z,13.03
2023-01-05T23:26:16.595Z,15.50
2023-01-05T23:28:21.398Z,12.17
2023-01-05T23:30:23.526Z,10.97
2023-01-05T23:32:25.707Z,12.23
2023-01-05T23:34:27.698Z,15.40
2023-01-05T23:36:29.782Z,17.17
2023-01-05T23:38:34.515Z,16.37
2023-01-05T23:40:44.760Z,11.17
2023-01-05T23:42:47.050Z,10.37
2023-01-05T23:44:49.260Z,12.77
2023-01-05T23:46:51.785Z,10.60
2023-01-05T23:48:54.193Z,12.00
2023-01-05T23:50:57.059Z,12.63
2023-01-05T23:53:00.124Z,12.40
2023-01-05T23:55:02.501Z,9.23
2023-01-05T23:57:04.459Z,11.47
2023-01-05T23:59:08.587Z,9.13
